sensor_id;sensor_type;location;lat;lon;timestamp;temperature;humidity
60717;DHT22;46566;52.700;6.192;2023-03-03T00:02:22;1.90;99.90
60717;DHT22;46566;52.700;6.192;2023-03-03T00:04:48;1.90;99.90
60717;DHT22;46566;52.700;6.192;2023-03-03T00:07:14;1.90;99.90
60717;DHT22;46566;52.700;6.192;2023-03-03T00:09:46;2.00;99.90
60717;DHT22;46566;52.700;6.192;2023-03-03T00:12:24;2.00;99.90
60717;DHT22;46566;52.700;6.192;2023-03-03T00:14:50;2.00;99.90
60717;DHT22;46566;52.700;6.192;2023-03-03T00:17:25;2.00;99.90
60717;DHT22;46566;52.700;6.192;2023-03-03T00:19:51;2.00;99.90
60717;DHT22;46566;52.700;6.192;2023-03-03T00:22:29;2.00;99.90
60717;DHT22;46566;52.700;6.192;2023-03-03T00:24:59;2.00;99.90
60717;DHT22;46566;52.700;6.192;2023-03-03T00:27:34;2.10;99.90
60717;DHT22;46566;52.700;6.192;2023-03-03T00:30:00;2.00;99.90
60717;DHT22;46566;52.700;6.192;2023-03-03T00:32:30;2.00;99.90
60717;DHT22;46566;52.700;6.192;2023-03-03T00:35:31;2.10;99.90
60717;DHT22;46566;52.700;6.192;2023-03-03T00:38:19;2.10;99.90
60717;DHT22;46566;52.700;6.192;2023-03-03T00:40:46;2.10;99.90
60717;DHT22;46566;52.700;6.192;2023-03-03T00:45:46;2.10;99.90
60717;DHT22;46566;52.700;6.192;2023-03-03T00:50:46;2.20;99.90
60717;DHT22;46566;52.700;6.192;2023-03-03T00:53:16;2.10;99.90
60717;DHT22;46566;52.700;6.192;2023-03-03T00:55:42;2.20;99.90
60717;DHT22;46566;52.700;6.192;2023-03-03T00:58:08;2.20;99.90
60717;DHT22;46566;52.700;6.192;2023-03-03T01:00:40;2.20;99.90
60717;DHT22;46566;52.700;6.192;2023-03-03T01:03:13;2.30;99.90
60717;DHT22;46566;52.700;6.192;2023-03-03T01:05:39;2.30;99.90
60717;DHT22;46566;52.700;6.192;2023-03-03T01:08:05;2.20;99.90
60717;DHT22;46566;52.700;6.192;2023-03-03T01:10:33;2.30;99.90
60717;DHT22;46566;52.700;6.192;2023-03-03T01:13:00;2.30;99.90
60717;DHT22;46566;52.700;6.192;2023-03-03T01:15:26;2.30;99.90
60717;DHT22;46566;52.700;6.192;2023-03-03T01:17:51;2.30;99.90
60717;DHT22;46566;52.700;6.192;2023-03-03T01:20:18;2.30;99.90
60717;DHT22;46566;52.700;6.192;2023-03-03T01:22:44;2.30;99.90
60717;DHT22;46566;52.700;6.192;2023-03-03T01:25:09;2.30;99.90
60717;DHT22;46566;52.700;6.192;2023-03-03T01:27:36;2.30;99.90
60717;DHT22;46566;52.700;6.192;2023-03-03T01:30:07;2.20;99.90
60717;DHT22;46566;52.700;6.192;2023-03-03T01:32:33;2.20;99.90
60717;DHT22;46566;52.700;6.192;2023-03-03T01:34:59;2.30;99.90
60717;DHT22;46566;52.700;6.192;2023-03-03T01:37:25;2.30;99.90
60717;DHT22;46566;52.700;6.192;2023-03-03T01:39:52;2.30;99.90
60717;DHT22;46566;52.700;6.192;2023-03-03T01:42:18;2.30;99.90
60717;DHT22;46566;52.700;6.192;2023-03-03T01:44:44;2.30;99.90
60717;DHT22;46566;52.700;6.192;2023-03-03T01:49:50;2.40;99.90
60717;DHT22;46566;52.700;6.192;2023-03-03T01:52:30;2.40;99.90
60717;DHT22;46566;52.700;6.192;2023-03-03T01:55:03;2.30;99.90
60717;DHT22;46566;52.700;6.192;2023-03-03T01:57:32;2.40;99.90
60717;DHT22;46566;52.700;6.192;2023-03-03T01:59:59;2.40;99.90
60717;DHT22;46566;52.700;6.192;2023-03-03T02:02:27;2.50;99.90
60717;DHT22;46566;52.700;6.192;2023-03-03T02:04:53;2.30;99.90
60717;DHT22;46566;52.700;6.192;2023-03-03T02:07:19;2.30;99.90
60717;DHT22;46566;52.700;6.192;2023-03-03T02:09:56;2.40;99.90
60717;DHT22;46566;52.700;6.192;2023-03-03T02:12:29;2.40;99.90
60717;DHT22;46566;52.700;6.192;2023-03-03T02:14:56;2.30;99.90
60717;DHT22;46566;52.700;6.192;2023-03-03T02:17:22;2.60;99.90
60717;DHT22;46566;52.700;6.192;2023-03-03T02:20:06;2.50;99.90
60717;DHT22;46566;52.700;6.192;2023-03-03T02:22:43;2.50;99.90
60717;DHT22;46566;52.700;6.192;2023-03-03T02:25:17;2.50;99.90
60717;DHT22;46566;52.700;6.192;2023-03-03T02:27:46;2.50;99.90
60717;DHT22;46566;52.700;6.192;2023-03-03T02:30:19;2.50;99.90
60717;DHT22;46566;52.700;6.192;2023-03-03T02:32:46;2.50;99.90
60717;DHT22;46566;52.700;6.192;2023-03-03T02:35:28;2.50;99.90
60717;DHT22;46566;52.700;6.192;2023-03-03T02:37:57;2.60;99.90
60717;DHT22;46566;52.700;6.192;2023-03-03T02:40:25;2.40;99.90
60717;DHT22;46566;52.700;6.192;2023-03-03T02:42:53;2.50;99.90
60717;DHT22;46566;52.700;6.192;2023-03-03T02:45:20;2.50;99.90
60717;DHT22;46566;52.700;6.192;2023-03-03T02:47:50;2.50;99.90
60717;DHT22;46566;52.700;6.192;2023-03-03T02:50:17;2.40;99.90
60717;DHT22;46566;52.700;6.192;2023-03-03T02:52:42;2.50;99.90
60717;DHT22;46566;52.700;6.192;2023-03-03T02:55:08;2.40;99.90
60717;DHT22;46566;52.700;6.192;2023-03-03T02:57:34;2.50;99.90
60717;DHT22;46566;52.700;6.192;2023-03-03T02:59:59;2.50;99.90
60717;DHT22;46566;52.700;6.192;2023-03-03T03:02:25;2.40;99.90
60717;DHT22;46566;52.700;6.192;2023-03-03T03:04:52;2.50;99.90
60717;DHT22;46566;52.700;6.192;2023-03-03T03:07:21;2.50;99.90
60717;DHT22;46566;52.700;6.192;2023-03-03T03:09:47;2.40;99.90
60717;DHT22;46566;52.700;6.192;2023-03-03T03:12:14;2.50;99.90
60717;DHT22;46566;52.700;6.192;2023-03-03T03:14:40;2.50;99.90
60717;DHT22;46566;52.700;6.192;2023-03-03T03:17:06;2.50;99.90
60717;DHT22;46566;52.700;6.192;2023-03-03T03:19:32;2.50;99.90
60717;DHT22;46566;52.700;6.192;2023-03-03T03:22:00;2.50;99.90
60717;DHT22;46566;52.700;6.192;2023-03-03T03:24:27;2.60;99.90
60717;DHT22;46566;52.700;6.192;2023-03-03T03:26:57;2.60;99.90
60717;DHT22;46566;52.700;6.192;2023-03-03T03:29:24;2.60;99.90
60717;DHT22;46566;52.700;6.192;2023-03-03T03:31:50;2.60;99.90
60717;DHT22;46566;52.700;6.192;2023-03-03T03:34:16;2.50;99.90
60717;DHT22;46566;52.700;6.192;2023-03-03T03:36:42;2.50;99.90
60717;DHT22;46566;52.700;6.192;2023-03-03T03:39:09;2.60;99.90
60717;DHT22;46566;52.700;6.192;2023-03-03T03:41:39;2.60;99.90
60717;DHT22;46566;52.700;6.192;2023-03-03T03:44:05;2.60;99.90
60717;DHT22;46566;52.700;6.192;2023-03-03T03:46:31;2.60;99.90
60717;DHT22;46566;52.700;6.192;2023-03-03T03:48:57;2.60;99.90
60717;DHT22;46566;52.700;6.192;2023-03-03T03:51:22;2.60;99.90
60717;DHT22;46566;52.700;6.192;2023-03-03T03:53:48;2.60;99.90
60717;DHT22;46566;52.700;6.192;2023-03-03T03:56:14;2.60;99.90
60717;DHT22;46566;52.700;6.192;2023-03-03T03:58:41;2.60;99.90
60717;DHT22;46566;52.700;6.192;2023-03-03T04:01:08;2.70;99.90
60717;DHT22;46566;52.700;6.192;2023-03-03T04:03:39;2.70;99.90
60717;DHT22;46566;52.700;6.192;2023-03-03T04:06:09;2.70;99.90
60717;DHT22;46566;52.700;6.192;2023-03-03T04:08:35;2.70;99.90
60717;DHT22;46566;52.700;6.192;2023-03-03T04:11:01;2.70;99.90
60717;DHT22;46566;52.700;6.192;2023-03-03T04:13:27;2.70;99.90
60717;DHT22;46566;52.700;6.192;2023-03-03T04:15:56;2.70;99.90
60717;DHT22;46566;52.700;6.192;2023-03-03T04:18:22;2.70;99.90
60717;DHT22;46566;52.700;6.192;2023-03-03T04:20:48;2.70;99.90
60717;DHT22;46566;52.700;6.192;2023-03-03T04:23:14;2.70;99.90
60717;DHT22;46566;52.700;6.192;2023-03-03T04:25:40;2.80;99.90
60717;DHT22;46566;52.700;6.192;2023-03-03T04:28:13;2.80;99.90
60717;DHT22;46566;52.700;6.192;2023-03-03T04:30:39;2.90;99.90
60717;DHT22;46566;52.700;6.192;2023-03-03T04:33:05;2.80;99.90
60717;DHT22;46566;52.700;6.192;2023-03-03T04:35:31;2.70;99.90
60717;DHT22;46566;52.700;6.192;2023-03-03T04:37:57;2.70;99.90
60717;DHT22;46566;52.700;6.192;2023-03-03T04:40:23;2.90;99.90
60717;DHT22;46566;52.700;6.192;2023-03-03T04:42:50;2.70;99.90
60717;DHT22;46566;52.700;6.192;2023-03-03T04:45:16;2.80;99.90
60717;DHT22;46566;52.700;6.192;2023-03-03T04:47:44;2.80;99.90
60717;DHT22;46566;52.700;6.192;2023-03-03T04:50:10;2.80;99.90
60717;DHT22;46566;52.700;6.192;2023-03-03T04:52:36;2.80;99.90
60717;DHT22;46566;52.700;6.192;2023-03-03T04:55:03;2.80;99.90
60717;DHT22;46566;52.700;6.192;2023-03-03T04:57:29;2.80;99.90
60717;DHT22;46566;52.700;6.192;2023-03-03T04:59:56;2.80;99.90
60717;DHT22;46566;52.700;6.192;2023-03-03T05:02:22;2.80;99.90
60717;DHT22;46566;52.700;6.192;2023-03-03T05:04:48;2.80;99.90
60717;DHT22;46566;52.700;6.192;2023-03-03T05:07:13;2.80;99.90
60717;DHT22;46566;52.700;6.192;2023-03-03T05:09:39;2.80;99.90
60717;DHT22;46566;52.700;6.192;2023-03-03T05:12:05;2.80;99.90
60717;DHT22;46566;52.700;6.192;2023-03-03T05:14:31;2.80;99.90
60717;DHT22;46566;52.700;6.192;2023-03-03T05:16:56;2.90;99.90
60717;DHT22;46566;52.700;6.192;2023-03-03T05:19:22;2.90;99.90
60717;DHT22;46566;52.700;6.192;2023-03-03T05:21:48;2.80;99.90
60717;DHT22;46566;52.700;6.192;2023-03-03T05:24:14;2.80;99.90
60717;DHT22;46566;52.700;6.192;2023-03-03T05:26:40;2.90;99.90
60717;DHT22;46566;52.700;6.192;2023-03-03T05:29:07;2.90;99.90
60717;DHT22;46566;52.700;6.192;2023-03-03T05:31:33;3.00;99.90
60717;DHT22;46566;52.700;6.192;2023-03-03T05:33:59;2.90;99.90
60717;DHT22;46566;52.700;6.192;2023-03-03T05:36:24;2.90;99.90
60717;DHT22;46566;52.700;6.192;2023-03-03T05:38:50;3.00;99.90
60717;DHT22;46566;52.700;6.192;2023-03-03T05:41:16;3.10;99.90
60717;DHT22;46566;52.700;6.192;2023-03-03T05:43:42;3.00;99.90
60717;DHT22;46566;52.700;6.192;2023-03-03T05:46:07;2.90;99.90
60717;DHT22;46566;52.700;6.192;2023-03-03T05:48:33;3.10;99.90
60717;DHT22;46566;52.700;6.192;2023-03-03T05:50:59;3.10;99.90
60717;DHT22;46566;52.700;6.192;2023-03-03T05:53:26;3.10;99.90
60717;DHT22;46566;52.700;6.192;2023-03-03T05:55:52;2.90;99.90
60717;DHT22;46566;52.700;6.192;2023-03-03T05:58:17;2.90;99.90
60717;DHT22;46566;52.700;6.192;2023-03-03T06:00:43;2.90;99.90
60717;DHT22;46566;52.700;6.192;2023-03-03T06:03:09;2.90;99.90
60717;DHT22;46566;52.700;6.192;2023-03-03T06:05:34;3.00;99.90
60717;DHT22;46566;52.700;6.192;2023-03-03T06:08:00;3.00;99.90
60717;DHT22;46566;52.700;6.192;2023-03-03T06:10:26;3.10;99.90
60717;DHT22;46566;52.700;6.192;2023-03-03T06:12:54;3.10;99.90
60717;DHT22;46566;52.700;6.192;2023-03-03T06:15:23;3.00;99.90
60717;DHT22;46566;52.700;6.192;2023-03-03T06:17:49;3.10;99.90
60717;DHT22;46566;52.700;6.192;2023-03-03T06:20:15;3.10;99.90
60717;DHT22;46566;52.700;6.192;2023-03-03T06:22:41;3.00;99.90
60717;DHT22;46566;52.700;6.192;2023-03-03T06:25:07;3.10;99.90
60717;DHT22;46566;52.700;6.192;2023-03-03T06:27:32;3.00;99.90
60717;DHT22;46566;52.700;6.192;2023-03-03T06:29:58;3.20;99.90
60717;DHT22;46566;52.700;6.192;2023-03-03T06:32:24;3.10;99.90
60717;DHT22;46566;52.700;6.192;2023-03-03T06:34:49;3.10;99.90
60717;DHT22;46566;52.700;6.192;2023-03-03T06:37:15;3.10;99.90
60717;DHT22;46566;52.700;6.192;2023-03-03T06:39:41;3.10;99.90
60717;DHT22;46566;52.700;6.192;2023-03-03T06:42:06;3.30;99.90
60717;DHT22;46566;52.700;6.192;2023-03-03T06:44:34;3.10;99.90
60717;DHT22;46566;52.700;6.192;2023-03-03T06:47:00;3.20;99.90
60717;DHT22;46566;52.700;6.192;2023-03-03T06:49:26;3.20;99.90
60717;DHT22;46566;52.700;6.192;2023-03-03T06:51:51;3.10;99.90
60717;DHT22;46566;52.700;6.192;2023-03-03T06:54:19;3.30;99.90
60717;DHT22;46566;52.700;6.192;2023-03-03T06:56:46;3.20;99.90
60717;DHT22;46566;52.700;6.192;2023-03-03T06:59:18;3.30;99.90
60717;DHT22;46566;52.700;6.192;2023-03-03T07:01:46;3.20;99.90
60717;DHT22;46566;52.700;6.192;2023-03-03T07:04:23;3.30;99.90
60717;DHT22;46566;52.700;6.192;2023-03-03T07:06:50;3.30;99.90
60717;DHT22;46566;52.700;6.192;2023-03-03T07:09:25;3.20;99.90
60717;DHT22;46566;52.700;6.192;2023-03-03T07:11:52;3.20;99.90
60717;DHT22;46566;52.700;6.192;2023-03-03T07:14:21;3.20;99.90
60717;DHT22;46566;52.700;6.192;2023-03-03T07:16:51;3.20;99.90
60717;DHT22;46566;52.700;6.192;2023-03-03T07:19:34;3.30;99.90
60717;DHT22;46566;52.700;6.192;2023-03-03T07:22:21;3.30;99.90
60717;DHT22;46566;52.700;6.192;2023-03-03T07:24:53;3.30;99.90
60717;DHT22;46566;52.700;6.192;2023-03-03T07:27:27;3.30;99.90
60717;DHT22;46566;52.700;6.192;2023-03-03T07:29:55;3.30;99.90
60717;DHT22;46566;52.700;6.192;2023-03-03T07:32:42;3.30;99.90
60717;DHT22;46566;52.700;6.192;2023-03-03T07:35:37;3.30;99.90
60717;DHT22;46566;52.700;6.192;2023-03-03T07:38:58;3.30;99.90
60717;DHT22;46566;52.700;6.192;2023-03-03T07:41:19;3.30;99.90
60717;DHT22;46566;52.700;6.192;2023-03-03T07:43:54;3.30;99.90
60717;DHT22;46566;52.700;6.192;2023-03-03T07:46:42;3.40;99.90
60717;DHT22;46566;52.700;6.192;2023-03-03T07:49:34;3.30;99.90
60717;DHT22;46566;52.700;6.192;2023-03-03T07:52:01;3.30;99.90
60717;DHT22;46566;52.700;6.192;2023-03-03T07:54:35;3.30;99.90
60717;DHT22;46566;52.700;6.192;2023-03-03T07:57:18;3.30;99.90
60717;DHT22;46566;52.700;6.192;2023-03-03T07:59:50;3.40;99.90
60717;DHT22;46566;52.700;6.192;2023-03-03T08:07:51;3.40;99.90
60717;DHT22;46566;52.700;6.192;2023-03-03T08:13:21;3.40;99.90
60717;DHT22;46566;52.700;6.192;2023-03-03T08:16:01;3.40;99.90
60717;DHT22;46566;52.700;6.192;2023-03-03T08:21:02;3.40;99.90
60717;DHT22;46566;52.700;6.192;2023-03-03T08:23:28;3.40;99.90
60717;DHT22;46566;52.700;6.192;2023-03-03T08:25:54;3.50;99.90
60717;DHT22;46566;52.700;6.192;2023-03-03T08:28:20;3.50;99.90
60717;DHT22;46566;52.700;6.192;2023-03-03T08:30:46;3.50;99.90
60717;DHT22;46566;52.700;6.192;2023-03-03T08:33:13;3.60;99.90
60717;DHT22;46566;52.700;6.192;2023-03-03T08:35:39;3.60;99.90
60717;DHT22;46566;52.700;6.192;2023-03-03T08:38:05;3.60;99.90
60717;DHT22;46566;52.700;6.192;2023-03-03T08:40:32;3.60;99.90
60717;DHT22;46566;52.700;6.192;2023-03-03T08:42:58;3.60;99.90
60717;DHT22;46566;52.700;6.192;2023-03-03T08:45:24;3.70;99.90
60717;DHT22;46566;52.700;6.192;2023-03-03T08:47:50;3.70;99.90
60717;DHT22;46566;52.700;6.192;2023-03-03T08:52:55;3.80;99.90
60717;DHT22;46566;52.700;6.192;2023-03-03T08:55:21;3.90;99.90
60717;DHT22;46566;52.700;6.192;2023-03-03T08:57:47;3.90;99.90
60717;DHT22;46566;52.700;6.192;2023-03-03T09:00:16;3.90;99.90
60717;DHT22;46566;52.700;6.192;2023-03-03T09:02:42;4.00;99.90
60717;DHT22;46566;52.700;6.192;2023-03-03T09:05:08;4.00;99.90
60717;DHT22;46566;52.700;6.192;2023-03-03T09:07:34;4.10;99.90
60717;DHT22;46566;52.700;6.192;2023-03-03T09:10:00;4.20;99.90
60717;DHT22;46566;52.700;6.192;2023-03-03T09:46:25;5.70;99.90
60717;DHT22;46566;52.700;6.192;2023-03-03T10:00:16;6.50;99.90
60717;DHT22;46566;52.700;6.192;2023-03-03T10:08:43;7.30;99.90
60717;DHT22;46566;52.700;6.192;2023-03-03T10:11:19;7.50;99.90
60717;DHT22;46566;52.700;6.192;2023-03-03T10:16:39;7.90;99.90
60717;DHT22;46566;52.700;6.192;2023-03-03T10:24:51;8.40;99.90
60717;DHT22;46566;52.700;6.192;2023-03-03T10:27:40;8.40;99.90
60717;DHT22;46566;52.700;6.192;2023-03-03T10:33:04;8.80;99.90
60717;DHT22;46566;52.700;6.192;2023-03-03T10:38:38;9.00;99.90
60717;DHT22;46566;52.700;6.192;2023-03-03T10:44:22;9.40;99.90
60717;DHT22;46566;52.700;6.192;2023-03-03T10:46:56;9.50;99.90
60717;DHT22;46566;52.700;6.192;2023-03-03T10:58:59;9.40;99.90
60717;DHT22;46566;52.700;6.192;2023-03-03T11:02:08;9.50;99.90
60717;DHT22;46566;52.700;6.192;2023-03-03T11:04:41;9.70;99.90
60717;DHT22;46566;52.700;6.192;2023-03-03T11:16:13;10.10;99.90
60717;DHT22;46566;52.700;6.192;2023-03-03T11:24:45;9.70;99.90
60717;DHT22;46566;52.700;6.192;2023-03-03T11:30:47;9.60;99.90
60717;DHT22;46566;52.700;6.192;2023-03-03T11:39:25;9.40;99.90
60717;DHT22;46566;52.700;6.192;2023-03-03T11:42:41;9.50;99.90
60717;DHT22;46566;52.700;6.192;2023-03-03T11:44:59;9.30;99.90
60717;DHT22;46566;52.700;6.192;2023-03-03T11:47:38;9.30;99.90
60717;DHT22;46566;52.700;6.192;2023-03-03T11:50:20;9.30;99.90
60717;DHT22;46566;52.700;6.192;2023-03-03T11:55:32;9.20;99.90
60717;DHT22;46566;52.700;6.192;2023-03-03T11:58:33;9.20;99.90
60717;DHT22;46566;52.700;6.192;2023-03-03T12:04:06;9.20;99.90
60717;DHT22;46566;52.700;6.192;2023-03-03T12:33:53;8.70;99.90
60717;DHT22;46566;52.700;6.192;2023-03-03T13:06:06;8.60;99.90
60717;DHT22;46566;52.700;6.192;2023-03-03T13:11:57;8.70;99.90
60717;DHT22;46566;52.700;6.192;2023-03-03T13:15:04;8.70;99.90
60717;DHT22;46566;52.700;6.192;2023-03-03T13:26:41;8.70;99.90
60717;DHT22;46566;52.700;6.192;2023-03-03T13:29:34;8.70;99.90
60717;DHT22;46566;52.700;6.192;2023-03-03T13:32:07;8.80;99.90
60717;DHT22;46566;52.700;6.192;2023-03-03T13:41:01;8.80;99.90
60717;DHT22;46566;52.700;6.192;2023-03-03T13:49:15;8.80;99.90
60717;DHT22;46566;52.700;6.192;2023-03-03T13:52:11;8.80;99.90
60717;DHT22;46566;52.700;6.192;2023-03-03T13:58:15;8.80;99.90
60717;DHT22;46566;52.700;6.192;2023-03-03T14:06:36;9.00;99.90
60717;DHT22;46566;52.700;6.192;2023-03-03T14:09:33;9.20;99.90
60717;DHT22;46566;52.700;6.192;2023-03-03T14:21:48;9.90;99.90
60717;DHT22;46566;52.700;6.192;2023-03-03T14:24:19;10.00;99.90
60717;DHT22;46566;52.700;6.192;2023-03-03T14:27:35;10.00;99.90
60717;DHT22;46566;52.700;6.192;2023-03-03T14:38:36;9.50;99.90
60717;DHT22;46566;52.700;6.192;2023-03-03T14:47:26;9.30;99.90
60717;DHT22;46566;52.700;6.192;2023-03-03T14:49:54;9.20;99.90
60717;DHT22;46566;52.700;6.192;2023-03-03T15:09:56;9.10;99.90
60717;DHT22;46566;52.700;6.192;2023-03-03T15:12:24;9.10;99.90
60717;DHT22;46566;52.700;6.192;2023-03-03T15:15:25;9.10;99.90
60717;DHT22;46566;52.700;6.192;2023-03-03T15:20:37;8.90;99.90
60717;DHT22;46566;52.700;6.192;2023-03-03T15:34:56;8.60;99.90
60717;DHT22;46566;52.700;6.192;2023-03-03T15:38:02;8.50;99.90
60717;DHT22;46566;52.700;6.192;2023-03-03T15:43:05;8.40;99.90
60717;DHT22;46566;52.700;6.192;2023-03-03T15:46:19;8.40;99.90
60717;DHT22;46566;52.700;6.192;2023-03-03T15:49:13;8.40;99.90
60717;DHT22;46566;52.700;6.192;2023-03-03T15:57:38;8.30;99.90
60717;DHT22;46566;52.700;6.192;2023-03-03T16:00:32;8.30;99.90
60717;DHT22;46566;52.700;6.192;2023-03-03T16:03:16;8.20;99.90
60717;DHT22;46566;52.700;6.192;2023-03-03T16:09:01;8.10;99.90
60717;DHT22;46566;52.700;6.192;2023-03-03T16:12:26;8.00;99.90
60717;DHT22;46566;52.700;6.192;2023-03-03T16:29:59;7.80;99.90
60717;DHT22;46566;52.700;6.192;2023-03-03T16:35:56;7.70;99.90
60717;DHT22;46566;52.700;6.192;2023-03-03T16:56:43;7.40;99.90
60717;DHT22;46566;52.700;6.192;2023-03-03T16:59:35;7.40;99.90
60717;DHT22;46566;52.700;6.192;2023-03-03T17:11:43;7.40;99.90
60717;DHT22;46566;52.700;6.192;2023-03-03T17:20:36;7.40;99.90
60717;DHT22;46566;52.700;6.192;2023-03-03T17:36:47;7.10;99.90
60717;DHT22;46566;52.700;6.192;2023-03-03T17:39:44;7.10;99.90
60717;DHT22;46566;52.700;6.192;2023-03-03T17:42:16;7.10;99.90
60717;DHT22;46566;52.700;6.192;2023-03-03T17:44:58;7.10;99.90
60717;DHT22;46566;52.700;6.192;2023-03-03T17:55:57;7.10;99.90
60717;DHT22;46566;52.700;6.192;2023-03-03T18:02:01;7.10;99.90
60717;DHT22;46566;52.700;6.192;2023-03-03T18:04:47;7.10;99.90
60717;DHT22;46566;52.700;6.192;2023-03-03T18:21:06;7.00;99.90
60717;DHT22;46566;52.700;6.192;2023-03-03T18:23:37;7.00;99.90
60717;DHT22;46566;52.700;6.192;2023-03-03T18:26:29;7.00;99.90
60717;DHT22;46566;52.700;6.192;2023-03-03T18:34:38;6.90;99.90
60717;DHT22;46566;52.700;6.192;2023-03-03T18:37:35;6.90;99.90
60717;DHT22;46566;52.700;6.192;2023-03-03T18:53:28;6.90;99.90
60717;DHT22;46566;52.700;6.192;2023-03-03T18:55:56;6.90;99.90
60717;DHT22;46566;52.700;6.192;2023-03-03T19:00:55;6.90;99.90
60717;DHT22;46566;52.700;6.192;2023-03-03T19:03:55;6.80;99.90
60717;DHT22;46566;52.700;6.192;2023-03-03T19:09:19;6.80;99.90
60717;DHT22;46566;52.700;6.192;2023-03-03T19:12:08;6.90;99.90
60717;DHT22;46566;52.700;6.192;2023-03-03T19:14:41;6.80;99.90
60717;DHT22;46566;52.700;6.192;2023-03-03T19:22:48;6.80;99.90
60717;DHT22;46566;52.700;6.192;2023-03-03T19:33:20;6.80;99.90
60717;DHT22;46566;52.700;6.192;2023-03-03T19:41:37;6.80;99.90
60717;DHT22;46566;52.700;6.192;2023-03-03T19:46:55;6.80;99.90
60717;DHT22;46566;52.700;6.192;2023-03-03T19:49:49;6.80;99.90
60717;DHT22;46566;52.700;6.192;2023-03-03T19:52:27;6.80;99.90
60717;DHT22;46566;52.700;6.192;2023-03-03T19:55:01;6.70;99.90
60717;DHT22;46566;52.700;6.192;2023-03-03T20:00:35;6.70;99.90
60717;DHT22;46566;52.700;6.192;2023-03-03T20:08:43;6.70;99.90
60717;DHT22;46566;52.700;6.192;2023-03-03T20:14:02;6.70;99.90
60717;DHT22;46566;52.700;6.192;2023-03-03T20:16:38;6.70;99.90
60717;DHT22;46566;52.700;6.192;2023-03-03T20:19:41;6.70;99.90
60717;DHT22;46566;52.700;6.192;2023-03-03T20:22:40;6.70;99.90
60717;DHT22;46566;52.700;6.192;2023-03-03T20:31:31;6.60;99.90
60717;DHT22;46566;52.700;6.192;2023-03-03T20:36:42;6.60;99.90
60717;DHT22;46566;52.700;6.192;2023-03-03T20:53:32;6.60;99.90
60717;DHT22;46566;52.700;6.192;2023-03-03T20:56:09;6.50;99.90
60717;DHT22;46566;52.700;6.192;2023-03-03T20:58:45;6.50;99.90
60717;DHT22;46566;52.700;6.192;2023-03-03T21:01:15;6.50;99.90
60717;DHT22;46566;52.700;6.192;2023-03-03T21:03:45;6.50;99.90
60717;DHT22;46566;52.700;6.192;2023-03-03T21:06:16;6.50;99.90
60717;DHT22;46566;52.700;6.192;2023-03-03T21:08:47;6.60;99.90
60717;DHT22;46566;52.700;6.192;2023-03-03T21:11:19;6.50;99.90
60717;DHT22;46566;52.700;6.192;2023-03-03T21:13:50;6.50;99.90
60717;DHT22;46566;52.700;6.192;2023-03-03T21:19:10;6.50;99.90
60717;DHT22;46566;52.700;6.192;2023-03-03T21:21:41;6.50;99.90
60717;DHT22;46566;52.700;6.192;2023-03-03T21:24:10;6.50;99.90
60717;DHT22;46566;52.700;6.192;2023-03-03T21:26:59;6.50;99.90
60717;DHT22;46566;52.700;6.192;2023-03-03T21:29:30;6.50;99.90
60717;DHT22;46566;52.700;6.192;2023-03-03T21:32:07;6.50;99.90
60717;DHT22;46566;52.700;6.192;2023-03-03T21:34:40;6.50;99.90
60717;DHT22;46566;52.700;6.192;2023-03-03T21:37:07;6.50;99.90
60717;DHT22;46566;52.700;6.192;2023-03-03T21:39:36;6.50;99.90
60717;DHT22;46566;52.700;6.192;2023-03-03T21:42:09;6.40;99.90
60717;DHT22;46566;52.700;6.192;2023-03-03T21:44:41;6.40;99.90
60717;DHT22;46566;52.700;6.192;2023-03-03T21:47:20;6.50;99.90
60717;DHT22;46566;52.700;6.192;2023-03-03T21:49:48;6.50;99.90
60717;DHT22;46566;52.700;6.192;2023-03-03T21:52:16;6.50;99.90
60717;DHT22;46566;52.700;6.192;2023-03-03T21:54:43;6.50;99.90
60717;DHT22;46566;52.700;6.192;2023-03-03T21:57:09;6.50;99.90
60717;DHT22;46566;52.700;6.192;2023-03-03T21:59:35;6.50;99.90
60717;DHT22;46566;52.700;6.192;2023-03-03T22:02:01;6.50;99.90
60717;DHT22;46566;52.700;6.192;2023-03-03T22:04:27;6.50;99.90
60717;DHT22;46566;52.700;6.192;2023-03-03T22:06:53;6.50;99.90
60717;DHT22;46566;52.700;6.192;2023-03-03T22:09:21;6.50;99.90
60717;DHT22;46566;52.700;6.192;2023-03-03T22:11:47;6.40;99.90
60717;DHT22;46566;52.700;6.192;2023-03-03T22:14:14;6.40;99.90
60717;DHT22;46566;52.700;6.192;2023-03-03T22:16:40;6.40;99.90
60717;DHT22;46566;52.700;6.192;2023-03-03T22:19:06;6.40;99.90
60717;DHT22;46566;52.700;6.192;2023-03-03T22:21:34;6.40;99.90
60717;DHT22;46566;52.700;6.192;2023-03-03T22:24:00;6.40;99.90
60717;DHT22;46566;52.700;6.192;2023-03-03T22:26:26;6.40;99.90
60717;DHT22;46566;52.700;6.192;2023-03-03T22:28:55;6.40;99.90
60717;DHT22;46566;52.700;6.192;2023-03-03T22:31:20;6.40;99.90
60717;DHT22;46566;52.700;6.192;2023-03-03T22:33:47;6.40;99.90
60717;DHT22;46566;52.700;6.192;2023-03-03T22:36:13;6.40;99.90
60717;DHT22;46566;52.700;6.192;2023-03-03T22:38:39;6.40;99.90
60717;DHT22;46566;52.700;6.192;2023-03-03T22:41:05;6.40;99.90
60717;DHT22;46566;52.700;6.192;2023-03-03T22:43:31;6.40;99.90
60717;DHT22;46566;52.700;6.192;2023-03-03T22:45:57;6.40;99.90
60717;DHT22;46566;52.700;6.192;2023-03-03T22:48:25;6.40;99.90
60717;DHT22;46566;52.700;6.192;2023-03-03T22:50:52;6.40;99.90
60717;DHT22;46566;52.700;6.192;2023-03-03T22:53:18;6.40;99.90
60717;DHT22;46566;52.700;6.192;2023-03-03T22:55:44;6.40;99.90
60717;DHT22;46566;52.700;6.192;2023-03-03T22:58:10;6.40;99.90
60717;DHT22;46566;52.700;6.192;2023-03-03T23:00:37;6.40;99.90
60717;DHT22;46566;52.700;6.192;2023-03-03T23:03:08;6.40;99.90
60717;DHT22;46566;52.700;6.192;2023-03-03T23:05:35;6.40;99.90
60717;DHT22;46566;52.700;6.192;2023-03-03T23:08:05;6.40;99.90
60717;DHT22;46566;52.700;6.192;2023-03-03T23:10:32;6.30;99.90
60717;DHT22;46566;52.700;6.192;2023-03-03T23:12:58;6.40;99.90
60717;DHT22;46566;52.700;6.192;2023-03-03T23:15:24;6.30;99.90
60717;DHT22;46566;52.700;6.192;2023-03-03T23:17:49;6.30;99.90
60717;DHT22;46566;52.700;6.192;2023-03-03T23:20:18;6.30;99.90
60717;DHT22;46566;52.700;6.192;2023-03-03T23:22:44;6.30;99.90
60717;DHT22;46566;52.700;6.192;2023-03-03T23:25:10;6.30;99.90
60717;DHT22;46566;52.700;6.192;2023-03-03T23:27:37;6.30;99.90
60717;DHT22;46566;52.700;6.192;2023-03-03T23:30:06;6.30;99.90
60717;DHT22;46566;52.700;6.192;2023-03-03T23:32:32;6.30;99.90
60717;DHT22;46566;52.700;6.192;2023-03-03T23:34:58;6.30;99.90
60717;DHT22;46566;52.700;6.192;2023-03-03T23:37:23;6.30;99.90
60717;DHT22;46566;52.700;6.192;2023-03-03T23:39:49;6.30;99.90
60717;DHT22;46566;52.700;6.192;2023-03-03T23:42:15;6.30;99.90
60717;DHT22;46566;52.700;6.192;2023-03-03T23:44:41;6.30;99.90
60717;DHT22;46566;52.700;6.192;2023-03-03T23:47:07;6.30;99.90
60717;DHT22;46566;52.700;6.192;2023-03-03T23:49:34;6.30;99.90
60717;DHT22;46566;52.700;6.192;2023-03-03T23:52:00;6.30;99.90
60717;DHT22;46566;52.700;6.192;2023-03-03T23:54:26;6.30;99.90
60717;DHT22;46566;52.700;6.192;2023-03-03T23:56:52;6.30;99.90